CMA CGM Homere — MQBL6 — position and weather

sailwx.info

Track history (hours):
 
Tides and Currents Weather Stations Pressure Air Temp Water Temp Dewpoint Dewpoint Depression Visibility Wind Speed Wind Dir Waves Ship Positions

CMA CGM Homere

Last reported at 2015-Mar-02 15:34 UTC. Time now 2015-Mar-02 16:31 UTC.
Position N 37°20' W 025°42'.

Length 170 m; draft 9.5 m.

Type: Ship (hazmat cat A). MMSI: 235052314.

Date/timePositionNaut miles runAvg speedWind from/ knotsBaromVisibWave heightAir tempDewpointWater temp
2015-Mar-02 15:34N 37°20' W 025°42'1817.9
2015-Mar-02 14:34N 37°29' W 025°22'1818.2
2015-Mar-02 13:34N 37°39' W 025°03'1817.8
2015-Mar-02 12:34N 37°49' W 024°44'1817.6
2015-Mar-02 11:34N 37°58' W 024°25'1817.8
2015-Mar-02 10:34N 38°08' W 024°07'1817.7
2015-Mar-02 09:33N 38°17' W 023°47'1817.7
2015-Mar-02 08:34N 38°27' W 023°29'1817.7
2015-Mar-02 07:34N 38°37' W 023°10'  
2015-Feb-27 07:24N 49°43' W 000°45'1618.6
2015-Feb-27 06:33N 49°35' W 000°23'1615.8
2015-Feb-27 05:34N 49°30' W 000°01'7 6.8
2015-Feb-27 04:31N 49°29' E 000°10'0 0.0
2015-Feb-27 03:31N 49°29' E 000°10'0 0.0
2015-Feb-27 02:31N 49°29' E 000°10'0 0.0
2015-Feb-27 01:28N 49°29' E 000°10'0 0.0
2015-Feb-27 00:31N 49°29' E 000°10'0 0.0
2015-Feb-26 23:31N 49°29' E 000°10'0 0.0
2015-Feb-26 22:31N 49°29' E 000°10'0 0.0
2015-Feb-26 21:31N 49°29' E 000°10'0 0.0
2015-Feb-26 20:31N 49°29' E 000°10'0 0.0
2015-Feb-26 19:31N 49°29' E 000°10'0 0.0
2015-Feb-26 18:31N 49°29' E 000°10'0 0.0
2015-Feb-26 17:31N 49°29' E 000°10'0 0.0
2015-Feb-26 16:31N 49°29' E 000°10'0 0.0
2015-Feb-26 15:31N 49°29' E 000°10'0 0.0
2015-Feb-26 14:31N 49°29' E 000°10'0 0.0
2015-Feb-26 13:31N 49°29' E 000°10'0 0.0
2015-Feb-26 12:31N 49°29' E 000°10'0 0.0
2015-Feb-26 11:31N 49°29' E 000°10'0 0.0
2015-Feb-26 10:31N 49°29' E 000°10'2 2.5
2015-Feb-26 09:33N 49°29' E 000°06'1211.8
2015-Feb-26 08:34N 49°32' W 000°11'1616.2
2015-Feb-26 07:33N 49°44' W 000°29'6416.0
2015-Feb-26 03:33N 50°35' E 000°32'1515.0
2015-Feb-26 02:33N 50°44' E 000°51'1918.3
2015-Feb-26 01:32N 50°56' E 001°12'1919.4
2015-Feb-26 00:33N 51°09' E 001°36'2020.2
2015-Feb-25 23:33N 51°24' E 001°57'1919.5
2015-Feb-25 22:34N 51°40' E 002°15'2018.4
2015-Feb-25 21:29N 51°55' E 002°36'1717.9
2015-Feb-25 20:32N 52°03' E 003°00'1818.3
2015-Feb-25 19:33N 52°04' E 003°29'1616.4
2015-Feb-25 18:33N 52°03' E 003°56'1010.1
2015-Feb-25 17:33N 51°57' E 004°10'9 9.4
2015-Feb-25 16:33N 51°54' E 004°24'1 0.9
2015-Feb-25 15:33N 51°53' E 004°24'0 0.0
2015-Feb-25 14:33N 51°53' E 004°24'0 0.0
2015-Feb-25 13:33N 51°53' E 004°24'0 0.0
2015-Feb-25 12:33N 51°53' E 004°24'0 0.0
2015-Feb-25 11:33N 51°53' E 004°24'0 0.0
2015-Feb-25 10:33N 51°53' E 004°24'0 0.0
2015-Feb-25 09:33N 51°53' E 004°24'0 0.0
2015-Feb-25 08:30N 51°53' E 004°24'0 0.0
2015-Feb-25 07:33N 51°53' E 004°24'0 0.0
2015-Feb-25 06:33N 51°53' E 004°24'0 0.0
2015-Feb-25 05:33N 51°53' E 004°24'0 0.0
2015-Feb-25 04:33N 51°53' E 004°24'0 0.0
2015-Feb-25 03:33N 51°53' E 004°24'0 0.0
2015-Feb-25 02:33N 51°53' E 004°24'0 0.0
2015-Feb-25 01:33N 51°53' E 004°24'0 0.0
2015-Feb-25 00:33N 51°53' E 004°24'0 0.0
2015-Feb-24 23:33N 51°53' E 004°24'0 0.0
2015-Feb-24 22:33N 51°53' E 004°24'0 0.0
2015-Feb-24 21:33N 51°53' E 004°24'0 0.0
2015-Feb-24 20:24N 51°53' E 004°24'0 0.0
2015-Feb-24 19:33N 51°53' E 004°24'0 0.1
2015-Feb-24 18:33N 51°53' E 004°24'1 1.0
2015-Feb-24 17:34N 51°54' E 004°23'1111.0
2015-Feb-24 16:34N 51°59' E 004°07'1111.3
2015-Feb-24 15:33N 52°00' E 003°49'1110.6
2015-Feb-24 14:32N 51°56' E 003°32'1111.0
2015-Feb-24 13:33N 51°53' E 003°16'2611.8
2015-Feb-24 11:22N 51°45' E 002°36'911.3
2015-Feb-24 10:34N 51°39' E 002°26'1212.1
2015-Feb-24 09:33N 51°30' E 002°13'1312.9
2015-Feb-24 08:33N 51°20' E 001°59'1413.7
2015-Feb-24 07:34N 51°10' E 001°45'1414.1
2015-Feb-24 06:34N 50°58' E 001°32'1414.1
2015-Feb-24 05:33N 50°45' E 001°23'3013.3
2015-Feb-24 03:16N 50°27' E 000°45'1213.8
2015-Feb-24 02:25N 50°24' E 000°27'23914.2
2015-Feb-23 09:33N 48°55' W 005°15'62917.3
2015-Feb-21 21:09N 38°58' W 009°50'1115.7
2015-Feb-21 20:27N 38°47' W 009°51'1415.2
2015-Feb-21 19:33N 38°33' W 009°48'1515.1
2015-Feb-21 18:33N 38°19' W 009°43'1615.5
2015-Feb-21 17:33N 38°04' W 009°38'1615.7
2015-Feb-21 16:33N 37°48' W 009°34'1615.6
2015-Feb-21 15:33N 37°33' W 009°31'7515.1
2015-Feb-21 10:33N 36°34' W 008°32'14417.8
2015-Feb-21 02:29N 35°58' W 005°39'1415.5
2015-Feb-21 01:34N 36°05' W 005°24'3 3.0
2015-Feb-21 00:31N 36°08' W 005°25'0 0.0
2015-Feb-20 23:28N 36°08' W 005°25'0 0.0
2015-Feb-20 22:31N 36°08' W 005°25'0 0.0
2015-Feb-20 21:31N 36°08' W 005°25'0 0.0
2015-Feb-20 20:31N 36°08' W 005°25'0 0.0
2015-Feb-20 19:31N 36°08' W 005°25'2 2.3
2015-Feb-20 18:33N 36°07' W 005°23'5 5.3
2015-Feb-20 17:34N 36°05' W 005°17'4 4.3
2015-Feb-20 16:34N 36°07' W 005°12'  
Track history (hours):
 
Tides and Currents Weather Stations Pressure Air Temp Water Temp Dewpoint Dewpoint Depression Visibility Wind Speed Wind Dir Waves Ship Positions

CMA CGM Homere

Last reported at 2015-Mar-02 15:34 UTC. Time now 2015-Mar-02 16:31 UTC.
Position N 37°20' W 025°42'.

Length 170 m; draft 9.5 m.

Type: Ship (hazmat cat A). MMSI: 235052314.

Date/timePositionNaut miles runAvg speedWind from/ knotsBaromVisibWave heightAir tempDewpointWater temp
2015-Mar-02 15:34N 37°20' W 025°42'1817.9
2015-Mar-02 14:34N 37°29' W 025°22'1818.2
2015-Mar-02 13:34N 37°39' W 025°03'1817.8
2015-Mar-02 12:34N 37°49' W 024°44'1817.6
2015-Mar-02 11:34N 37°58' W 024°25'1817.8
2015-Mar-02 10:34N 38°08' W 024°07'1817.7
2015-Mar-02 09:33N 38°17' W 023°47'1817.7
2015-Mar-02 08:34N 38°27' W 023°29'1817.7
2015-Mar-02 07:34N 38°37' W 023°10'  
2015-Feb-27 07:24N 49°43' W 000°45'1618.6
2015-Feb-27 06:33N 49°35' W 000°23'1615.8
2015-Feb-27 05:34N 49°30' W 000°01'7 6.8
2015-Feb-27 04:31N 49°29' E 000°10'0 0.0
2015-Feb-27 03:31N 49°29' E 000°10'0 0.0
2015-Feb-27 02:31N 49°29' E 000°10'0 0.0
2015-Feb-27 01:28N 49°29' E 000°10'0 0.0
2015-Feb-27 00:31N 49°29' E 000°10'0 0.0
2015-Feb-26 23:31N 49°29' E 000°10'0 0.0
2015-Feb-26 22:31N 49°29' E 000°10'0 0.0
2015-Feb-26 21:31N 49°29' E 000°10'0 0.0
2015-Feb-26 20:31N 49°29' E 000°10'0 0.0
2015-Feb-26 19:31N 49°29' E 000°10'0 0.0
2015-Feb-26 18:31N 49°29' E 000°10'0 0.0
2015-Feb-26 17:31N 49°29' E 000°10'0 0.0
2015-Feb-26 16:31N 49°29' E 000°10'0 0.0
2015-Feb-26 15:31N 49°29' E 000°10'0 0.0
2015-Feb-26 14:31N 49°29' E 000°10'0 0.0
2015-Feb-26 13:31N 49°29' E 000°10'0 0.0
2015-Feb-26 12:31N 49°29' E 000°10'0 0.0
2015-Feb-26 11:31N 49°29' E 000°10'0 0.0
2015-Feb-26 10:31N 49°29' E 000°10'2 2.5
2015-Feb-26 09:33N 49°29' E 000°06'1211.8
2015-Feb-26 08:34N 49°32' W 000°11'1616.2
2015-Feb-26 07:33N 49°44' W 000°29'6416.0
2015-Feb-26 03:33N 50°35' E 000°32'1515.0
2015-Feb-26 02:33N 50°44' E 000°51'1918.3
2015-Feb-26 01:32N 50°56' E 001°12'1919.4
2015-Feb-26 00:33N 51°09' E 001°36'2020.2
2015-Feb-25 23:33N 51°24' E 001°57'1919.5
2015-Feb-25 22:34N 51°40' E 002°15'2018.4
2015-Feb-25 21:29N 51°55' E 002°36'1717.9
2015-Feb-25 20:32N 52°03' E 003°00'1818.3
2015-Feb-25 19:33N 52°04' E 003°29'1616.4
2015-Feb-25 18:33N 52°03' E 003°56'1010.1
2015-Feb-25 17:33N 51°57' E 004°10'9 9.4
2015-Feb-25 16:33N 51°54' E 004°24'1 0.9
2015-Feb-25 15:33N 51°53' E 004°24'0 0.0
2015-Feb-25 14:33N 51°53' E 004°24'0 0.0
2015-Feb-25 13:33N 51°53' E 004°24'0 0.0
2015-Feb-25 12:33N 51°53' E 004°24'0 0.0
2015-Feb-25 11:33N 51°53' E 004°24'0 0.0
2015-Feb-25 10:33N 51°53' E 004°24'0 0.0
2015-Feb-25 09:33N 51°53' E 004°24'0 0.0
2015-Feb-25 08:30N 51°53' E 004°24'0 0.0
2015-Feb-25 07:33N 51°53' E 004°24'0 0.0
2015-Feb-25 06:33N 51°53' E 004°24'0 0.0
2015-Feb-25 05:33N 51°53' E 004°24'0 0.0
2015-Feb-25 04:33N 51°53' E 004°24'0 0.0
2015-Feb-25 03:33N 51°53' E 004°24'0 0.0
2015-Feb-25 02:33N 51°53' E 004°24'0 0.0
2015-Feb-25 01:33N 51°53' E 004°24'0 0.0
2015-Feb-25 00:33N 51°53' E 004°24'0 0.0
2015-Feb-24 23:33N 51°53' E 004°24'0 0.0
2015-Feb-24 22:33N 51°53' E 004°24'0 0.0
2015-Feb-24 21:33N 51°53' E 004°24'0 0.0
2015-Feb-24 20:24N 51°53' E 004°24'0 0.0
2015-Feb-24 19:33N 51°53' E 004°24'0 0.1
2015-Feb-24 18:33N 51°53' E 004°24'1 1.0
2015-Feb-24 17:34N 51°54' E 004°23'1111.0
2015-Feb-24 16:34N 51°59' E 004°07'1111.3
2015-Feb-24 15:33N 52°00' E 003°49'1110.6
2015-Feb-24 14:32N 51°56' E 003°32'1111.0
2015-Feb-24 13:33N 51°53' E 003°16'2611.8
2015-Feb-24 11:22N 51°45' E 002°36'911.3
2015-Feb-24 10:34N 51°39' E 002°26'1212.1
2015-Feb-24 09:33N 51°30' E 002°13'1312.9
2015-Feb-24 08:33N 51°20' E 001°59'1413.7
2015-Feb-24 07:34N 51°10' E 001°45'1414.1
2015-Feb-24 06:34N 50°58' E 001°32'1414.1
2015-Feb-24 05:33N 50°45' E 001°23'3013.3
2015-Feb-24 03:16N 50°27' E 000°45'1213.8
2015-Feb-24 02:25N 50°24' E 000°27'23914.2
2015-Feb-23 09:33N 48°55' W 005°15'62917.3
2015-Feb-21 21:09N 38°58' W 009°50'1115.7
2015-Feb-21 20:27N 38°47' W 009°51'1415.2
2015-Feb-21 19:33N 38°33' W 009°48'1515.1
2015-Feb-21 18:33N 38°19' W 009°43'1615.5
2015-Feb-21 17:33N 38°04' W 009°38'1615.7
2015-Feb-21 16:33N 37°48' W 009°34'1615.6
2015-Feb-21 15:33N 37°33' W 009°31'7515.1
2015-Feb-21 10:33N 36°34' W 008°32'14417.8
2015-Feb-21 02:29N 35°58' W 005°39'1415.5
2015-Feb-21 01:34N 36°05' W 005°24'3 3.0
2015-Feb-21 00:31N 36°08' W 005°25'0 0.0
2015-Feb-20 23:28N 36°08' W 005°25'0 0.0
2015-Feb-20 22:31N 36°08' W 005°25'0 0.0
2015-Feb-20 21:31N 36°08' W 005°25'0 0.0
2015-Feb-20 20:31N 36°08' W 005°25'0 0.0
2015-Feb-20 19:31N 36°08' W 005°25'2 2.3
2015-Feb-20 18:33N 36°07' W 005°23'5 5.3
2015-Feb-20 17:34N 36°05' W 005°17'4 4.3
2015-Feb-20 16:34N 36°07' W 005°12'  

Dump ship's entire track history